Time;durP1;ratioP1;P1;durP2;ratioP2;P2;SDS_P1;SDS_P2;PMS_P1;PMS_P2;Temp;Humidity;BMP_temperature;BMP_pressure;BME280_temperature;BME280_humidity;BME280_pressure;Samples;Min_cycle;Max_cycle;Signal;HPM_P1;HPM_P2
2021/11/30 00:01:09;;;;;;;6.25;3.90;;;;;;;;;;5064072;28;20466;-53
2021/11/30 00:03:36;;;;;;;6.32;3.65;;;;;;;;;;5064931;28;20025;-54
2021/11/30 00:06:03;;;;;;;7.20;4.25;;;;;;;;;;5064747;28;20032;-53
2021/11/30 00:08:33;;;;;;;6.40;3.85;;;;;;;;;;5064931;28;20028;-54
2021/11/30 00:11:00;;;;;;;9.48;5.13;;;;;;;;;;5064308;28;20029;-54
2021/11/30 00:13:27;;;;;;;8.63;4.32;;;;;;;;;;5063816;28;20074;-54
2021/11/30 00:15:55;;;;;;;9.07;4.72;;;;;;;;;;5064865;28;20380;-54
2021/11/30 00:18:22;;;;;;;10.45;5.43;;;;;;;;;;5063935;28;20016;-54
2021/11/30 00:20:50;;;;;;;9.20;5.03;;;;;;;;;;5045935;28;20521;-53
2021/11/30 00:23:16;;;;;;;9.85;5.00;;;;;;;;;;5062875;28;20025;-54
2021/11/30 00:25:42;;;;;;;9.02;4.57;;;;;;;;;;5063058;28;20024;-53
2021/11/30 00:28:09;;;;;;;10.68;4.85;;;;;;;;;;5065394;28;20020;-54
2021/11/30 00:30:37;;;;;;;7.70;4.25;;;;;;;;;;5065046;28;20090;-54
2021/11/30 00:33:04;;;;;;;11.10;5.38;;;;;;;;;;5046665;28;20082;-55
2021/11/30 00:35:30;;;;;;;14.55;7.00;;;;;;;;;;5045801;28;20032;-55
2021/11/30 00:37:57;;;;;;;13.25;6.57;;;;;;;;;;5063586;28;20067;-54
2021/11/30 00:40:23;;;;;;;13.60;6.70;;;;;;;;;;5064012;28;20032;-54
2021/11/30 00:42:49;;;;;;;12.57;6.82;;;;;;;;;;5046798;28;20067;-55
2021/11/30 00:45:17;;;;;;;13.77;6.47;;;;;;;;;;5046294;28;20473;-55
2021/11/30 00:47:51;;;;;;;14.63;7.18;;;;;;;;;;5063665;28;20035;-53
2021/11/30 00:50:18;;;;;;;14.40;6.97;;;;;;;;;;5063322;28;20040;-52
2021/11/30 00:52:44;;;;;;;11.40;5.43;;;;;;;;;;5064611;28;20122;-51
2021/11/30 00:55:11;;;;;;;11.48;5.32;;;;;;;;;;5045899;28;20036;-54
2021/11/30 00:57:40;;;;;;;10.07;5.25;;;;;;;;;;5064177;28;20231;-54
2021/11/30 01:00:08;;;;;;;10.32;5.72;;;;;;;;;;5064871;28;20033;-54
2021/11/30 01:02:34;;;;;;;8.10;4.47;;;;;;;;;;5045956;28;20021;-52
2021/11/30 01:05:01;;;;;;;10.02;5.22;;;;;;;;;;5062731;28;20043;-52
2021/11/30 01:07:27;;;;;;;11.00;4.75;;;;;;;;;;5063082;28;20060;-53
2021/11/30 01:09:54;;;;;;;9.90;4.88;;;;;;;;;;5045274;28;20035;-53
2021/11/30 01:12:20;;;;;;;9.68;4.65;;;;;;;;;;5063927;28;20025;-54
2021/11/30 01:14:46;;;;;;;7.75;3.92;;;;;;;;;;5062957;28;20025;-51
2021/11/30 01:17:13;;;;;;;6.13;3.60;;;;;;;;;;5062609;28;20059;-53
2021/11/30 01:19:40;;;;;;;5.97;3.35;;;;;;;;;;5056165;28;20020;-53
2021/11/30 01:22:07;;;;;;;6.43;4.05;;;;;;;;;;5085239;28;20038;-53
2021/11/30 01:24:34;;;;;;;4.88;3.33;;;;;;;;;;5060923;28;20028;-53
2021/11/30 01:27:00;;;;;;;6.97;4.07;;;;;;;;;;5060176;28;20397;-55
2021/11/30 01:29:26;;;;;;;5.38;4.07;;;;;;;;;;5062656;28;20028;-52
2021/11/30 01:31:53;;;;;;;8.40;4.65;;;;;;;;;;5063863;28;20407;-53
2021/11/30 01:34:20;;;;;;;7.43;4.97;;;;;;;;;;5064254;28;20093;-53
2021/11/30 01:36:47;;;;;;;8.80;4.47;;;;;;;;;;5064443;28;20127;-55
2021/11/30 01:39:14;;;;;;;6.15;4.07;;;;;;;;;;5063056;28;20032;-53
2021/11/30 01:41:42;;;;;;;7.65;4.57;;;;;;;;;;5064039;28;20067;-54
2021/11/30 01:44:23;;;;;;;7.47;4.50;;;;;;;;;;5063618;28;20108;-54
2021/11/30 01:47:05;;;;;;;8.00;4.45;;;;;;;;;;5064496;28;20036;-54
2021/11/30 01:49:35;;;;;;;9.18;4.93;;;;;;;;;;5062429;28;20020;-53
2021/11/30 01:52:08;;;;;;;11.18;5.50;;;;;;;;;;5064897;28;20028;-53
2021/11/30 01:54:38;;;;;;;9.55;5.47;;;;;;;;;;5064763;28;20060;-54
2021/11/30 01:57:05;;;;;;;10.80;5.38;;;;;;;;;;5064044;28;20059;-55
2021/11/30 01:59:32;;;;;;;10.23;5.68;;;;;;;;;;5063477;28;20033;-53
2021/11/30 02:01:58;;;;;;;11.38;5.72;;;;;;;;;;5063893;28;20054;-52
2021/11/30 02:04:24;;;;;;;9.73;5.60;;;;;;;;;;5063845;28;20021;-53
2021/11/30 02:06:50;;;;;;;10.52;5.63;;;;;;;;;;5062222;28;20035;-53
2021/11/30 02:09:17;;;;;;;9.25;5.50;;;;;;;;;;5063658;28;20982;-55
2021/11/30 02:11:43;;;;;;;9.43;5.63;;;;;;;;;;5062972;28;20039;-53
2021/11/30 02:14:09;;;;;;;12.40;5.68;;;;;;;;;;5063194;28;20024;-53
2021/11/30 02:16:36;;;;;;;9.68;5.32;;;;;;;;;;5062972;28;20032;-54
2021/11/30 02:19:03;;;;;;;10.80;5.57;;;;;;;;;;5064282;28;20435;-53
2021/11/30 02:21:33;;;;;;;10.43;4.90;;;;;;;;;;5063473;28;20040;-53
2021/11/30 02:24:00;;;;;;;9.77;5.22;;;;;;;;;;5064389;28;20020;-54
2021/11/30 02:26:29;;;;;;;10.93;6.07;;;;;;;;;;5062811;28;20036;-54
2021/11/30 02:28:57;;;;;;;11.07;6.22;;;;;;;;;;5063693;28;20510;-52
2021/11/30 02:31:29;;;;;;;11.40;6.50;;;;;;;;;;5063575;28;20032;-53
2021/11/30 02:33:56;;;;;;;13.15;6.57;;;;;;;;;;5063725;28;20027;-53
2021/11/30 02:37:12;;;;;;;15.50;7.55;;;;;;;;;;5045000;28;20533;-53
2021/11/30 02:39:12;;;;;;;11.10;6.47;;;;;;;;;;5055912;28;20043;-53
2021/11/30 02:41:39;;;;;;;11.93;6.82;;;;;;;;;;5063575;28;20058;-54
2021/11/30 02:44:07;;;;;;;10.65;5.80;;;;;;;;;;5063980;28;20115;-53
2021/11/30 02:46:36;;;;;;;9.57;5.22;;;;;;;;;;5066961;28;20752;-53
2021/11/30 02:49:03;;;;;;;8.88;4.78;;;;;;;;;;5066011;28;20523;-54
2021/11/30 02:51:31;;;;;;;7.25;4.30;;;;;;;;;;5067404;28;20032;-54
2021/11/30 02:54:00;;;;;;;6.45;3.72;;;;;;;;;;5067295;28;20021;-54
2021/11/30 02:56:27;;;;;;;6.43;3.97;;;;;;;;;;5065724;28;20048;-53
2021/11/30 02:58:55;;;;;;;6.70;4.22;;;;;;;;;;5066966;28;20559;-54
2021/11/30 03:01:21;;;;;;;4.45;3.55;;;;;;;;;;5065131;28;20090;-54
2021/11/30 03:03:47;;;;;;;5.57;3.53;;;;;;;;;;5066175;28;20908;-54
2021/11/30 03:06:13;;;;;;;5.63;3.70;;;;;;;;;;5065650;28;20028;-53
2021/11/30 03:08:40;;;;;;;7.03;4.25;;;;;;;;;;5067142;28;20025;-53
2021/11/30 03:11:07;;;;;;;6.28;3.88;;;;;;;;;;5066542;28;20431;-52
2021/11/30 03:13:33;;;;;;;7.65;4.13;;;;;;;;;;5067080;28;20399;-51
2021/11/30 03:15:59;;;;;;;8.30;4.63;;;;;;;;;;5046306;28;20592;-52
2021/11/30 03:18:25;;;;;;;8.27;5.10;;;;;;;;;;5066548;28;20077;-53
2021/11/30 03:20:51;;;;;;;7.65;4.55;;;;;;;;;;5065758;28;20406;-54
2021/11/30 03:23:17;;;;;;;8.75;5.25;;;;;;;;;;5065284;28;20035;-53
2021/11/30 03:25:44;;;;;;;9.18;5.22;;;;;;;;;;5049042;28;20032;-53
2021/11/30 03:28:10;;;;;;;8.60;4.82;;;;;;;;;;5065820;28;20013;-54
2021/11/30 03:30:41;;;;;;;9.23;5.07;;;;;;;;;;5066511;28;20167;-54
2021/11/30 03:35:54;;;;;;;8.98;4.43;;;;;;;;;;5066070;28;20082;-53
2021/11/30 03:38:20;;;;;;;7.38;4.22;;;;;;;;;;5065942;28;20544;-53
2021/11/30 03:40:46;;;;;;;6.57;3.97;;;;;;;;;;5066606;28;20026;-53
2021/11/30 03:43:13;;;;;;;6.70;4.07;;;;;;;;;;5066640;28;20086;-53
2021/11/30 03:45:39;;;;;;;5.45;3.95;;;;;;;;;;5066085;28;20020;-54
2021/11/30 03:48:05;;;;;;;5.68;3.78;;;;;;;;;;5065594;28;20326;-53
2021/11/30 03:50:32;;;;;;;5.22;3.78;;;;;;;;;;5048168;28;20487;-53
2021/11/30 03:52:59;;;;;;;6.03;3.72;;;;;;;;;;5066081;28;20025;-54
2021/11/30 03:55:25;;;;;;;5.78;3.88;;;;;;;;;;5065456;28;20016;-52
2021/11/30 03:57:51;;;;;;;4.47;3.25;;;;;;;;;;5064204;28;20036;-51
2021/11/30 04:00:17;;;;;;;5.30;3.42;;;;;;;;;;5065492;28;20059;-54
2021/11/30 04:02:43;;;;;;;5.18;3.58;;;;;;;;;;5066336;28;20028;-54
2021/11/30 04:05:09;;;;;;;6.40;4.10;;;;;;;;;;5065326;28;20028;-53
2021/11/30 04:07:35;;;;;;;7.65;4.13;;;;;;;;;;5064462;28;20036;-54
2021/11/30 04:10:01;;;;;;;7.03;4.18;;;;;;;;;;5065653;28;20377;-53
2021/11/30 04:12:28;;;;;;;6.68;4.30;;;;;;;;;;5065792;28;20033;-53
2021/11/30 04:14:55;;;;;;;7.47;4.63;;;;;;;;;;5065751;28;20275;-52
2021/11/30 04:17:21;;;;;;;7.00;4.45;;;;;;;;;;5064164;28;20025;-53
2021/11/30 04:19:47;;;;;;;6.75;3.88;;;;;;;;;;5066602;28;20487;-53
2021/11/30 04:22:14;;;;;;;6.45;4.05;;;;;;;;;;5065857;28;20028;-53
2021/11/30 04:24:41;;;;;;;6.78;4.25;;;;;;;;;;5063784;28;20032;-53
2021/11/30 04:27:07;;;;;;;7.05;3.92;;;;;;;;;;5064491;28;20051;-53
2021/11/30 04:29:36;;;;;;;5.43;3.83;;;;;;;;;;5064898;28;20028;-54
2021/11/30 04:32:02;;;;;;;7.28;4.20;;;;;;;;;;5064840;28;20526;-53
2021/11/30 04:34:28;;;;;;;6.63;4.47;;;;;;;;;;5065216;28;20025;-54
2021/11/30 04:36:54;;;;;;;7.50;4.15;;;;;;;;;;5064754;28;20082;-54
2021/11/30 04:39:20;;;;;;;7.38;4.07;;;;;;;;;;5064833;28;20024;-54
2021/11/30 04:41:47;;;;;;;6.05;4.18;;;;;;;;;;5065594;28;20040;-54
2021/11/30 04:44:14;;;;;;;5.60;3.78;;;;;;;;;;5063539;28;20036;-54
2021/11/30 04:52:07;;;;;;;5.72;3.97;;;;;;;;;;5065051;28;20111;-54
2021/11/30 04:54:35;;;;;;;5.70;3.92;;;;;;;;;;5064489;28;20028;-53
2021/11/30 04:57:01;;;;;;;6.63;4.53;;;;;;;;;;5063367;28;20120;-53
2021/11/30 04:59:27;;;;;;;8.40;4.82;;;;;;;;;;5063649;28;20064;-53
2021/11/30 05:01:54;;;;;;;8.50;5.15;;;;;;;;;;5064555;28;20056;-53
2021/11/30 05:04:20;;;;;;;6.82;4.60;;;;;;;;;;5064405;28;20032;-53
2021/11/30 05:06:46;;;;;;;7.18;4.43;;;;;;;;;;5062508;28;20020;-53
2021/11/30 05:09:13;;;;;;;8.10;4.78;;;;;;;;;;5062384;28;20032;-53
2021/11/30 05:11:40;;;;;;;7.50;4.55;;;;;;;;;;5064033;28;20099;-54
2021/11/30 05:14:07;;;;;;;6.95;4.40;;;;;;;;;;5064779;28;20040;-53
2021/11/30 05:16:34;;;;;;;6.93;4.40;;;;;;;;;;5064010;28;20024;-53
2021/11/30 05:19:00;;;;;;;7.75;4.57;;;;;;;;;;5063755;28;20115;-53
2021/11/30 05:21:26;;;;;;;7.68;4.55;;;;;;;;;;5062571;28;20418;-52
2021/11/30 05:23:57;;;;;;;7.63;5.00;;;;;;;;;;5064493;28;20116;-52
2021/11/30 05:26:23;;;;;;;8.55;4.57;;;;;;;;;;5063985;28;20023;-53
2021/11/30 05:28:49;;;;;;;7.57;4.43;;;;;;;;;;5063669;28;20028;-54
2021/11/30 05:31:15;;;;;;;8.68;4.93;;;;;;;;;;5064601;28;20518;-52
2021/11/30 05:33:44;;;;;;;8.35;4.95;;;;;;;;;;5064675;28;20107;-53
2021/11/30 05:36:10;;;;;;;8.45;4.93;;;;;;;;;;5064624;28;20012;-51
2021/11/30 05:38:37;;;;;;;7.80;5.07;;;;;;;;;;5063224;28;20031;-50
2021/11/30 05:41:03;;;;;;;7.43;4.88;;;;;;;;;;5064141;28;20040;-50
2021/11/30 05:43:29;;;;;;;8.23;4.80;;;;;;;;;;5064055;28;20052;-49
2021/11/30 05:45:56;;;;;;;11.52;4.88;;;;;;;;;;5063964;28;20515;-52
2021/11/30 05:48:22;;;;;;;8.07;4.65;;;;;;;;;;5062176;28;20056;-49
2021/11/30 05:50:49;;;;;;;9.90;5.40;;;;;;;;;;5064404;28;20025;-53
2021/11/30 05:53:16;;;;;;;9.02;5.53;;;;;;;;;;5061456;28;20031;-50
2021/11/30 05:55:48;;;;;;;7.78;5.53;;;;;;;;;;5062000;28;20028;-51
2021/11/30 05:58:15;;;;;;;8.30;5.15;;;;;;;;;;5062267;28;20343;-48
2021/11/30 06:00:42;;;;;;;7.82;5.25;;;;;;;;;;5063265;28;20055;-52
2021/11/30 06:03:27;;;;;;;8.02;5.22;;;;;;;;;;5064025;28;20041;-52
2021/11/30 06:05:54;;;;;;;9.13;5.35;;;;;;;;;;5063681;28;20108;-49
2021/11/30 06:08:21;;;;;;;9.23;5.82;;;;;;;;;;5063587;28;20024;-51
2021/11/30 06:10:47;;;;;;;9.20;5.78;;;;;;;;;;5063777;28;20427;-52
2021/11/30 06:13:13;;;;;;;9.30;5.68;;;;;;;;;;5063006;28;20036;-51
2021/11/30 06:15:39;;;;;;;8.60;5.88;;;;;;;;;;5063998;28;20115;-48
2021/11/30 06:18:05;;;;;;;11.68;7.35;;;;;;;;;;5064943;28;20254;-50
2021/11/30 06:20:34;;;;;;;10.18;6.72;;;;;;;;;;5067952;28;20060;-48
2021/11/30 06:23:01;;;;;;;10.00;5.82;;;;;;;;;;5067024;28;20035;-50
2021/11/30 06:25:27;;;;;;;11.43;7.07;;;;;;;;;;5067421;28;20024;-48
2021/11/30 06:27:53;;;;;;;9.10;5.95;;;;;;;;;;5067562;28;20028;-51
2021/11/30 06:30:19;;;;;;;10.38;6.05;;;;;;;;;;5067040;28;20041;-48
2021/11/30 06:32:45;;;;;;;11.45;7.00;;;;;;;;;;5067003;28;20039;-49
2021/11/30 06:35:12;;;;;;;9.55;5.97;;;;;;;;;;5067393;28;20403;-48
2021/11/30 06:37:39;;;;;;;11.65;6.32;;;;;;;;;;5067112;28;20074;-48
2021/11/30 06:40:06;;;;;;;10.25;6.15;;;;;;;;;;5067449;28;20418;-48
2021/11/30 06:42:33;;;;;;;9.65;6.03;;;;;;;;;;5066355;28;20045;-47
2021/11/30 06:44:59;;;;;;;10.18;6.10;;;;;;;;;;5067046;28;20796;-47
2021/11/30 06:47:26;;;;;;;8.80;5.82;;;;;;;;;;5066746;28;20437;-47
2021/11/30 06:49:53;;;;;;;10.75;6.25;;;;;;;;;;5067207;28;20444;-47
2021/11/30 06:52:19;;;;;;;9.20;6.05;;;;;;;;;;5067220;28;20028;-50
2021/11/30 06:54:46;;;;;;;10.95;6.15;;;;;;;;;;5067032;28;20632;-47
2021/11/30 06:57:13;;;;;;;9.70;6.75;;;;;;;;;;5064619;28;20029;-50
2021/11/30 06:59:40;;;;;;;11.32;7.05;;;;;;;;;;5080809;28;20606;-51
2021/11/30 07:02:08;;;;;;;13.20;7.28;;;;;;;;;;5068046;28;20028;-48
2021/11/30 07:04:37;;;;;;;11.57;6.93;;;;;;;;;;5066224;28;20021;-49
2021/11/30 07:10:11;;;;;;;10.13;6.05;;;;;;;;;;5068428;28;20036;-49
2021/11/30 07:15:04;;;;;;;10.38;6.03;;;;;;;;;;5067547;28;20029;-52
2021/11/30 07:17:31;;;;;;;11.77;7.10;;;;;;;;;;5067929;28;20028;-49
2021/11/30 07:19:58;;;;;;;10.73;7.03;;;;;;;;;;5067314;28;20165;-48
2021/11/30 07:22:24;;;;;;;11.40;6.72;;;;;;;;;;5068452;28;20063;-48
2021/11/30 07:24:50;;;;;;;12.18;7.03;;;;;;;;;;5067436;28;20033;-51
2021/11/30 07:27:16;;;;;;;11.93;6.85;;;;;;;;;;5068280;28;20035;-50
2021/11/30 07:29:42;;;;;;;12.65;7.80;;;;;;;;;;5067223;28;20090;-49
2021/11/30 07:32:08;;;;;;;14.23;7.65;;;;;;;;;;5062088;28;20060;-49
2021/11/30 07:34:35;;;;;;;13.70;8.13;;;;;;;;;;5067384;28;20047;-49
2021/11/30 07:37:01;;;;;;;12.52;7.97;;;;;;;;;;5067951;28;20021;-50
2021/11/30 07:39:27;;;;;;;14.73;8.50;;;;;;;;;;5067298;28;20091;-52
2021/11/30 07:41:54;;;;;;;14.55;8.52;;;;;;;;;;5067622;28;20046;-51
2021/11/30 07:44:20;;;;;;;13.93;8.52;;;;;;;;;;5067388;28;20056;-51
2021/11/30 07:46:46;;;;;;;13.32;8.15;;;;;;;;;;5065370;28;20041;-52
2021/11/30 07:49:13;;;;;;;14.52;8.65;;;;;;;;;;5065640;28;20663;-50
2021/11/30 07:51:39;;;;;;;13.07;8.07;;;;;;;;;;5067200;28;20016;-51
2021/11/30 07:54:06;;;;;;;14.95;8.63;;;;;;;;;;5065656;28;20032;-51
2021/11/30 07:56:32;;;;;;;15.25;8.35;;;;;;;;;;5067550;28;20028;-48
2021/11/30 07:58:59;;;;;;;16.88;8.98;;;;;;;;;;5066113;28;20402;-50
2021/11/30 08:01:25;;;;;;;21.20;10.27;;;;;;;;;;5068633;28;20108;-51
2021/11/30 08:03:51;;;;;;;22.88;10.45;;;;;;;;;;5066572;28;20541;-51
2021/11/30 08:06:17;;;;;;;21.48;10.55;;;;;;;;;;5069436;28;20070;-49
2021/11/30 08:08:44;;;;;;;18.45;10.35;;;;;;;;;;5070611;28;20033;-48
2021/11/30 08:11:10;;;;;;;17.98;9.90;;;;;;;;;;5060034;28;20855;-51
2021/11/30 08:13:36;;;;;;;20.25;10.68;;;;;;;;;;5066420;28;20032;-50
2021/11/30 08:16:03;;;;;;;22.25;10.05;;;;;;;;;;5067031;28;20025;-49
2021/11/30 08:18:29;;;;;;;21.10;11.13;;;;;;;;;;5065973;28;20480;-48
2021/11/30 08:20:56;;;;;;;21.60;11.73;;;;;;;;;;5067950;28;20033;-49
2021/11/30 08:23:22;;;;;;;24.48;12.85;;;;;;;;;;5066206;28;20039;-49
2021/11/30 08:25:48;;;;;;;22.50;11.63;;;;;;;;;;5067714;28;20037;-49
2021/11/30 08:28:14;;;;;;;23.40;12.45;;;;;;;;;;5066347;28;20020;-49
2021/11/30 08:30:41;;;;;;;19.70;10.68;;;;;;;;;;5062785;28;20165;-50
2021/11/30 08:33:08;;;;;;;17.73;10.13;;;;;;;;;;5066067;28;20024;-52
2021/11/30 08:35:35;;;;;;;15.77;9.55;;;;;;;;;;5063647;28;20070;-52
2021/11/30 08:38:02;;;;;;;17.10;9.73;;;;;;;;;;5064629;28;20017;-52
2021/11/30 08:40:28;;;;;;;16.73;9.35;;;;;;;;;;5065405;28;20113;-51
2021/11/30 08:42:54;;;;;;;14.43;8.85;;;;;;;;;;5064587;28;20074;-51
2021/11/30 08:45:20;;;;;;;15.43;8.57;;;;;;;;;;5067272;28;20044;-52
2021/11/30 08:47:46;;;;;;;14.70;8.52;;;;;;;;;;5066286;28;20024;-51
2021/11/30 08:50:15;;;;;;;13.48;8.70;;;;;;;;;;5067168;28;20039;-50
2021/11/30 08:52:42;;;;;;;14.45;8.68;;;;;;;;;;5074442;28;20016;-52
2021/11/30 08:55:09;;;;;;;13.45;8.02;;;;;;;;;;5087318;28;20024;-50
2021/11/30 08:57:37;;;;;;;12.93;8.23;;;;;;;;;;5085706;28;20108;-50
2021/11/30 09:00:04;;;;;;;14.63;8.63;;;;;;;;;;5068893;28;20552;-47
2021/11/30 09:02:30;;;;;;;14.38;8.13;;;;;;;;;;5065508;28;20679;-48
2021/11/30 09:04:57;;;;;;;13.70;8.20;;;;;;;;;;5061725;28;20520;-47
2021/11/30 09:07:23;;;;;;;15.50;8.57;;;;;;;;;;5065518;28;20170;-46
2021/11/30 09:09:50;;;;;;;12.43;8.15;;;;;;;;;;5064276;28;20157;-46
2021/11/30 09:12:19;;;;;;;13.38;8.15;;;;;;;;;;5065451;28;20046;-49
2021/11/30 09:14:47;;;;;;;12.82;7.63;;;;;;;;;;5065945;28;20025;-48
2021/11/30 09:17:13;;;;;;;14.07;7.82;;;;;;;;;;5064678;28;20031;-47
2021/11/30 09:19:40;;;;;;;12.55;7.78;;;;;;;;;;5065696;28;20029;-47
2021/11/30 09:22:06;;;;;;;12.80;7.18;;;;;;;;;;5065268;28;20067;-51
2021/11/30 09:24:32;;;;;;;13.25;7.95;;;;;;;;;;5065353;28;20396;-48
2021/11/30 09:26:59;;;;;;;15.00;8.15;;;;;;;;;;5064904;28;20046;-46
2021/11/30 09:29:25;;;;;;;15.18;8.52;;;;;;;;;;5051517;28;20507;-46
2021/11/30 09:31:52;;;;;;;13.88;7.68;;;;;;;;;;5064015;28;20029;-46
2021/11/30 09:34:18;;;;;;;15.10;8.90;;;;;;;;;;5066172;28;20024;-46
2021/11/30 09:36:47;;;;;;;15.85;9.38;;;;;;;;;;5069123;28;20027;-46
2021/11/30 09:39:14;;;;;;;13.77;8.10;;;;;;;;;;5054526;28;20428;-47
2021/11/30 09:41:40;;;;;;;13.98;8.35;;;;;;;;;;5045575;28;20067;-46
2021/11/30 09:44:07;;;;;;;13.88;8.55;;;;;;;;;;5056049;28;20040;-46
2021/11/30 09:46:34;;;;;;;14.52;8.57;;;;;;;;;;5065569;28;20111;-47
2021/11/30 09:49:00;;;;;;;14.38;9.13;;;;;;;;;;5065727;28;20120;-46
2021/11/30 09:51:27;;;;;;;16.35;9.93;;;;;;;;;;5065370;28;20029;-46
2021/11/30 09:53:53;;;;;;;13.60;8.43;;;;;;;;;;5067978;28;20017;-46
2021/11/30 09:56:19;;;;;;;14.48;8.75;;;;;;;;;;5070115;28;20035;-47
2021/11/30 09:58:47;;;;;;;17.02;9.35;;;;;;;;;;5069834;28;20029;-46
2021/11/30 10:01:13;;;;;;;11.45;7.72;;;;;;;;;;5069392;28;20028;-47
2021/11/30 10:03:40;;;;;;;12.15;7.35;;;;;;;;;;5068981;28;20342;-47
2021/11/30 10:06:07;;;;;;;13.48;8.30;;;;;;;;;;5068684;28;20043;-47
2021/11/30 10:08:36;;;;;;;14.98;8.35;;;;;;;;;;5068791;28;20020;-48
2021/11/30 10:11:03;;;;;;;14.55;8.55;;;;;;;;;;5067636;28;20518;-50
2021/11/30 10:13:29;;;;;;;14.07;8.80;;;;;;;;;;5068531;28;20035;-48
2021/11/30 10:16:00;;;;;;;12.52;7.90;;;;;;;;;;5069433;28;20510;-49
2021/11/30 10:18:39;;;;;;;13.05;8.18;;;;;;;;;;5068853;28;20546;-49
2021/11/30 10:21:20;;;;;;;12.15;7.07;;;;;;;;;;5068832;28;20540;-52
2021/11/30 10:23:49;;;;;;;10.48;6.63;;;;;;;;;;5069793;28;20024;-50
2021/11/30 10:26:19;;;;;;;10.68;6.55;;;;;;;;;;5068405;28;20348;-53
2021/11/30 10:28:51;;;;;;;9.70;6.28;;;;;;;;;;5068456;28;20024;-53
2021/11/30 10:31:17;;;;;;;10.15;6.55;;;;;;;;;;5051392;28;20029;-53
2021/11/30 10:33:48;;;;;;;10.75;7.07;;;;;;;;;;5069040;28;20483;-54
2021/11/30 10:36:14;;;;;;;9.88;6.40;;;;;;;;;;5068690;28;20020;-52
2021/11/30 10:38:41;;;;;;;12.63;7.47;;;;;;;;;;5068720;28;20127;-52
2021/11/30 10:41:15;;;;;;;10.02;6.57;;;;;;;;;;5068931;28;20037;-52
2021/11/30 10:43:42;;;;;;;9.82;6.50;;;;;;;;;;5068600;28;20042;-52
2021/11/30 10:46:20;;;;;;;12.75;7.00;;;;;;;;;;5069055;28;20020;-52
2021/11/30 10:48:46;;;;;;;11.13;6.25;;;;;;;;;;5068778;28;20161;-50
2021/11/30 10:51:12;;;;;;;9.70;6.40;;;;;;;;;;5067895;28;20028;-52
2021/11/30 10:53:38;;;;;;;8.70;5.80;;;;;;;;;;5069325;28;20036;-52
2021/11/30 10:56:06;;;;;;;9.57;5.55;;;;;;;;;;5069239;28;20094;-50
2021/11/30 10:58:33;;;;;;;9.00;5.95;;;;;;;;;;5068568;28;20033;-52
2021/11/30 11:01:01;;;;;;;8.98;5.53;;;;;;;;;;5088774;28;20024;-53
2021/11/30 11:03:28;;;;;;;8.23;5.20;;;;;;;;;;5088169;28;20077;-50
2021/11/30 11:08:48;;;;;;;7.55;5.05;;;;;;;;;;5071335;28;20055;-54
2021/11/30 11:11:34;;;;;;;8.52;5.55;;;;;;;;;;5077808;28;20025;-53
2021/11/30 11:14:00;;;;;;;8.40;5.63;;;;;;;;;;5067424;28;20027;-52
2021/11/30 11:16:29;;;;;;;9.70;5.90;;;;;;;;;;5068188;28;20037;-53
2021/11/30 11:18:56;;;;;;;9.25;5.60;;;;;;;;;;5067869;28;20025;-52
2021/11/30 11:21:31;;;;;;;8.73;5.55;;;;;;;;;;5067561;28;20057;-53
2021/11/30 11:24:13;;;;;;;9.18;5.20;;;;;;;;;;5048076;28;20638;-53
2021/11/30 11:26:42;;;;;;;9.00;5.75;;;;;;;;;;5055587;28;20024;-52
2021/11/30 11:29:31;;;;;;;9.35;5.93;;;;;;;;;;5068083;28;20020;-52
2021/11/30 11:32:00;;;;;;;8.18;4.75;;;;;;;;;;5059833;28;20068;-53
2021/11/30 11:34:27;;;;;;;7.07;4.43;;;;;;;;;;5068123;28;20027;-53
2021/11/30 11:36:55;;;;;;;7.35;4.72;;;;;;;;;;5065031;28;20563;-53
2021/11/30 11:39:23;;;;;;;6.70;4.38;;;;;;;;;;5047566;28;20308;-53
2021/11/30 11:41:51;;;;;;;7.45;4.60;;;;;;;;;;5059780;28;20414;-54
2021/11/30 11:44:17;;;;;;;6.68;4.45;;;;;;;;;;5069211;28;20061;-52
2021/11/30 11:46:45;;;;;;;8.27;5.22;;;;;;;;;;5068444;28;20033;-52
2021/11/30 11:49:12;;;;;;;7.90;4.72;;;;;;;;;;5068527;28;20028;-52
2021/11/30 11:51:46;;;;;;;7.35;4.57;;;;;;;;;;5068956;28;20025;-53
2021/11/30 11:54:30;;;;;;;7.75;4.30;;;;;;;;;;5068226;28;20107;-52
2021/11/30 11:56:59;;;;;;;5.70;3.80;;;;;;;;;;5068806;28;20027;-53
2021/11/30 11:59:29;;;;;;;6.00;3.70;;;;;;;;;;5067992;28;20032;-52
2021/11/30 12:02:12;;;;;;;6.22;3.88;;;;;;;;;;5047325;28;20496;-52
2021/11/30 12:04:43;;;;;;;6.87;4.87;;;;;;;;;;5048298;28;20033;-52
2021/11/30 12:07:10;;;;;;;7.30;4.55;;;;;;;;;;5047527;28;20033;-53
2021/11/30 12:09:36;;;;;;;5.47;3.92;;;;;;;;;;5047967;28;20025;-53
2021/11/30 12:12:11;;;;;;;5.72;4.13;;;;;;;;;;5046204;28;20124;-53
2021/11/30 12:14:37;;;;;;;5.68;3.80;;;;;;;;;;5062541;28;20131;-52
2021/11/30 12:17:10;;;;;;;4.65;3.83;;;;;;;;;;5048949;28;20039;-53
2021/11/30 12:19:45;;;;;;;5.45;3.83;;;;;;;;;;5049394;28;20491;-52
2021/11/30 12:22:13;;;;;;;6.32;4.28;;;;;;;;;;5067734;28;20116;-52
2021/11/30 12:24:47;;;;;;;7.32;4.32;;;;;;;;;;5067747;28;20084;-52
2021/11/30 12:27:19;;;;;;;6.35;4.35;;;;;;;;;;5067286;28;20028;-53
2021/11/30 12:29:45;;;;;;;7.43;4.38;;;;;;;;;;5067139;28;20031;-53
2021/11/30 12:32:32;;;;;;;8.43;4.55;;;;;;;;;;5067231;28;20059;-52
2021/11/30 12:35:00;;;;;;;5.43;3.88;;;;;;;;;;5067097;28;20044;-52
2021/11/30 12:37:28;;;;;;;6.18;4.28;;;;;;;;;;5067329;28;20063;-53
2021/11/30 12:40:05;;;;;;;5.68;3.97;;;;;;;;;;5067129;28;20078;-52
2021/11/30 12:42:41;;;;;;;5.78;4.13;;;;;;;;;;5067060;28;20506;-51
2021/11/30 12:45:20;;;;;;;6.43;4.30;;;;;;;;;;5066818;28;20036;-53
2021/11/30 12:47:46;;;;;;;6.10;3.97;;;;;;;;;;5049580;28;20036;-50
2021/11/30 12:50:30;;;;;;;6.47;4.65;;;;;;;;;;5066590;28;20737;-53
2021/11/30 12:53:03;;;;;;;7.75;5.15;;;;;;;;;;5067489;28;20033;-50
2021/11/30 12:55:41;;;;;;;8.20;5.13;;;;;;;;;;5060817;28;20029;-51
2021/11/30 12:58:08;;;;;;;6.60;4.65;;;;;;;;;;5063171;28;20028;-54
2021/11/30 13:00:34;;;;;;;5.82;4.25;;;;;;;;;;5063123;28;20032;-53
2021/11/30 13:03:21;;;;;;;6.93;4.63;;;;;;;;;;5063841;28;20414;-52
2021/11/30 13:05:55;;;;;;;6.03;4.60;;;;;;;;;;5061388;28;20036;-53
2021/11/30 13:08:21;;;;;;;5.10;3.90;;;;;;;;;;5046830;28;20064;-53
2021/11/30 13:10:49;;;;;;;5.97;4.63;;;;;;;;;;5053546;28;20058;-53
2021/11/30 13:13:18;;;;;;;6.15;4.43;;;;;;;;;;5065588;28;20032;-53
2021/11/30 13:15:47;;;;;;;7.40;4.70;;;;;;;;;;5062229;28;20135;-53
2021/11/30 13:18:15;;;;;;;6.93;4.90;;;;;;;;;;5066632;28;20104;-53
2021/11/30 13:20:42;;;;;;;6.68;4.70;;;;;;;;;;5067013;28;20470;-52
2021/11/30 13:23:09;;;;;;;7.50;4.90;;;;;;;;;;5062455;28;20036;-53
2021/11/30 13:25:37;;;;;;;7.20;5.03;;;;;;;;;;5062876;28;20351;-51
2021/11/30 13:28:05;;;;;;;8.27;5.25;;;;;;;;;;5058550;28;20037;-53
2021/11/30 13:30:32;;;;;;;7.40;4.75;;;;;;;;;;5064537;28;20099;-51
2021/11/30 13:33:04;;;;;;;8.00;5.10;;;;;;;;;;5082520;28;20027;-53
2021/11/30 13:35:34;;;;;;;7.70;5.03;;;;;;;;;;5081773;28;20494;-52
2021/11/30 13:38:14;;;;;;;7.40;4.95;;;;;;;;;;5086251;28;20028;-53
2021/11/30 13:40:42;;;;;;;7.82;4.85;;;;;;;;;;5081236;28;20509;-53
2021/11/30 13:43:19;;;;;;;8.27;5.25;;;;;;;;;;5046928;28;20395;-53
2021/11/30 13:45:52;;;;;;;6.72;5.13;;;;;;;;;;5064519;28;20030;-52
2021/11/30 13:48:32;;;;;;;7.38;4.93;;;;;;;;;;5048530;28;20040;-49
2021/11/30 13:51:02;;;;;;;6.05;4.47;;;;;;;;;;5064554;28;20383;-53
2021/11/30 13:53:31;;;;;;;8.05;4.80;;;;;;;;;;5060811;28;20035;-52
2021/11/30 13:56:08;;;;;;;6.20;4.43;;;;;;;;;;5045770;28;20510;-53
2021/11/30 13:58:43;;;;;;;7.93;4.90;;;;;;;;;;5048029;28;20483;-52
2021/11/30 14:01:37;;;;;;;7.30;4.60;;;;;;;;;;5060373;28;20029;-53
2021/11/30 14:04:03;;;;;;;7.20;4.93;;;;;;;;;;5047225;28;20039;-54
2021/11/30 14:06:30;;;;;;;7.10;4.60;;;;;;;;;;5060387;28;20051;-53
2021/11/30 14:08:58;;;;;;;6.60;4.32;;;;;;;;;;5064960;28;20086;-52
2021/11/30 14:11:29;;;;;;;5.38;3.80;;;;;;;;;;5063887;28;20020;-53
2021/11/30 14:13:55;;;;;;;6.25;4.28;;;;;;;;;;5065452;28;20021;-52
2021/11/30 14:16:23;;;;;;;5.32;3.85;;;;;;;;;;5041607;28;20064;-53
2021/11/30 14:18:53;;;;;;;7.07;3.65;;;;;;;;;;5065871;28;20063;-53
2021/11/30 14:21:20;;;;;;;5.93;3.70;;;;;;;;;;5065546;28;20078;-53
2021/11/30 14:24:00;;;;;;;5.63;3.75;;;;;;;;;;5064986;28;20267;-52
2021/11/30 14:26:26;;;;;;;4.93;3.33;;;;;;;;;;5060914;28;20504;-53
2021/11/30 14:29:13;;;;;;;4.97;3.45;;;;;;;;;;5064171;28;20028;-53
2021/11/30 14:31:57;;;;;;;4.35;2.80;;;;;;;;;;5059508;28;20098;-53
2021/11/30 14:34:26;;;;;;;3.85;2.63;;;;;;;;;;5064848;28;20032;-53
2021/11/30 14:36:52;;;;;;;3.05;2.45;;;;;;;;;;5045744;28;20388;-53
2021/11/30 14:39:36;;;;;;;3.83;2.17;;;;;;;;;;5067281;28;20143;-53
2021/11/30 14:42:02;;;;;;;4.10;2.40;;;;;;;;;;5068710;28;20112;-53
2021/11/30 14:44:31;;;;;;;2.25;1.80;;;;;;;;;;5051190;28;20025;-53
2021/11/30 14:46:57;;;;;;;2.70;1.90;;;;;;;;;;5049357;28;20063;-52
2021/11/30 14:49:24;;;;;;;3.17;2.13;;;;;;;;;;5050784;28;20028;-52
2021/11/30 14:51:50;;;;;;;3.03;2.10;;;;;;;;;;5069653;28;20119;-53
2021/11/30 14:54:17;;;;;;;3.00;1.80;;;;;;;;;;5051401;28;20043;-53
2021/11/30 14:56:44;;;;;;;3.35;2.17;;;;;;;;;;5068076;28;20031;-53
2021/11/30 14:59:11;;;;;;;2.47;1.98;;;;;;;;;;5063487;28;20128;-53
2021/11/30 15:01:58;;;;;;;2.60;1.80;;;;;;;;;;5067849;28;20819;-53